sensor_id;sensor_type;location;lat;lon;timestamp;pressure;altitude;pressure_sealevel;temperature;humidity
77975;BME280;67164;51.202;0.278;2023-02-28T00:00:28;102846.04;;;22.96;29.92
77975;BME280;67164;51.202;0.278;2023-02-28T00:02:53;102849.90;;;23.29;29.77
77975;BME280;67164;51.202;0.278;2023-02-28T00:05:21;102846.29;;;23.04;29.74
77975;BME280;67164;51.202;0.278;2023-02-28T00:07:45;102846.27;;;23.50;29.69
77975;BME280;67164;51.202;0.278;2023-02-28T00:10:13;102850.36;;;23.40;29.66
77975;BME280;67164;51.202;0.278;2023-02-28T00:12:37;102850.54;;;23.21;29.65
77975;BME280;67164;51.202;0.278;2023-02-28T00:15:06;102855.36;;;23.33;29.70
77975;BME280;67164;51.202;0.278;2023-02-28T00:17:28;102855.56;;;23.01;29.72
77975;BME280;67164;51.202;0.278;2023-02-28T00:19:54;102856.84;;;22.60;29.85
77975;BME280;67164;51.202;0.278;2023-02-28T00:22:21;102856.45;;;22.81;29.85
77975;BME280;67164;51.202;0.278;2023-02-28T00:24:46;102853.39;;;22.87;30.00
77975;BME280;67164;51.202;0.278;2023-02-28T00:27:12;102858.50;;;22.96;29.95
77975;BME280;67164;51.202;0.278;2023-02-28T00:29:38;102861.56;;;22.82;30.02
77975;BME280;67164;51.202;0.278;2023-02-28T00:32:04;102857.93;;;22.82;30.09
77975;BME280;67164;51.202;0.278;2023-02-28T00:34:29;102859.90;;;22.89;30.08
77975;BME280;67164;51.202;0.278;2023-02-28T00:36:55;102854.31;;;22.91;30.04
77975;BME280;67164;51.202;0.278;2023-02-28T00:39:21;102858.52;;;23.05;29.89
77975;BME280;67164;51.202;0.278;2023-02-28T00:41:47;102865.79;;;22.98;30.01
77975;BME280;67164;51.202;0.278;2023-02-28T00:44:12;102868.25;;;23.07;29.92
77975;BME280;67164;51.202;0.278;2023-02-28T00:46:38;102869.74;;;23.01;29.99
77975;BME280;67164;51.202;0.278;2023-02-28T00:49:04;102865.51;;;22.97;30.09
77975;BME280;67164;51.202;0.278;2023-02-28T00:51:30;102864.16;;;22.88;30.20
77975;BME280;67164;51.202;0.278;2023-02-28T00:53:56;102860.53;;;22.76;30.33
77975;BME280;67164;51.202;0.278;2023-02-28T00:56:22;102857.40;;;22.85;30.44
77975;BME280;67164;51.202;0.278;2023-02-28T00:58:47;102858.89;;;23.03;30.54
77975;BME280;67164;51.202;0.278;2023-02-28T01:01:13;102858.76;;;22.73;30.58
77975;BME280;67164;51.202;0.278;2023-02-28T01:03:39;102861.27;;;22.99;30.58
77975;BME280;67164;51.202;0.278;2023-02-28T01:06:05;102858.68;;;22.50;30.65
77975;BME280;67164;51.202;0.278;2023-02-28T01:08:31;102859.71;;;22.64;30.46
77975;BME280;67164;51.202;0.278;2023-02-28T01:10:56;102860.78;;;22.58;30.47
77975;BME280;67164;51.202;0.278;2023-02-28T01:13:22;102862.54;;;23.03;30.50
77975;BME280;67164;51.202;0.278;2023-02-28T01:15:50;102865.00;;;22.81;30.58
77975;BME280;67164;51.202;0.278;2023-02-28T01:18:14;102862.83;;;22.86;30.34
77975;BME280;67164;51.202;0.278;2023-02-28T01:20:40;102859.59;;;22.84;30.29
77975;BME280;67164;51.202;0.278;2023-02-28T01:23:06;102862.62;;;22.80;30.44
77975;BME280;67164;51.202;0.278;2023-02-28T01:25:34;102865.60;;;22.68;30.67
77975;BME280;67164;51.202;0.278;2023-02-28T01:27:57;102864.54;;;22.71;30.54
77975;BME280;67164;51.202;0.278;2023-02-28T01:30:23;102863.24;;;22.61;30.56
77975;BME280;67164;51.202;0.278;2023-02-28T01:32:49;102863.91;;;22.86;30.61
77975;BME280;67164;51.202;0.278;2023-02-28T01:35:15;102865.78;;;22.63;30.55
77975;BME280;67164;51.202;0.278;2023-02-28T01:37:41;102864.93;;;22.85;30.54
77975;BME280;67164;51.202;0.278;2023-02-28T01:40:08;102864.60;;;22.30;30.56
77975;BME280;67164;51.202;0.278;2023-02-28T01:42:32;102864.36;;;22.78;30.55
77975;BME280;67164;51.202;0.278;2023-02-28T01:45:02;102860.66;;;22.78;30.54
77975;BME280;67164;51.202;0.278;2023-02-28T01:47:26;102861.09;;;22.74;30.63
77975;BME280;67164;51.202;0.278;2023-02-28T01:49:50;102854.90;;;22.46;30.57
77975;BME280;67164;51.202;0.278;2023-02-28T01:52:16;102853.89;;;22.43;30.54
77975;BME280;67164;51.202;0.278;2023-02-28T01:54:41;102855.30;;;22.51;30.48
77975;BME280;67164;51.202;0.278;2023-02-28T01:57:11;102853.24;;;22.51;30.47
77975;BME280;67164;51.202;0.278;2023-02-28T01:59:36;102853.33;;;22.57;30.36
77975;BME280;67164;51.202;0.278;2023-02-28T02:01:59;102855.51;;;22.32;30.50
77975;BME280;67164;51.202;0.278;2023-02-28T02:04:27;102857.39;;;22.75;30.44
77975;BME280;67164;51.202;0.278;2023-02-28T02:06:51;102861.84;;;22.50;30.47
77975;BME280;67164;51.202;0.278;2023-02-28T02:09:16;102859.76;;;22.56;30.47
77975;BME280;67164;51.202;0.278;2023-02-28T02:11:43;102856.06;;;22.24;30.56
77975;BME280;67164;51.202;0.278;2023-02-28T02:14:18;102855.70;;;22.38;30.57
77975;BME280;67164;51.202;0.278;2023-02-28T02:16:40;102856.61;;;22.39;30.67
77975;BME280;67164;51.202;0.278;2023-02-28T02:19:08;102858.12;;;22.26;30.77
77975;BME280;67164;51.202;0.278;2023-02-28T02:21:40;102855.80;;;22.25;30.79
77975;BME280;67164;51.202;0.278;2023-02-28T02:28:57;102858.26;;;22.16;30.84
77975;BME280;67164;51.202;0.278;2023-02-28T02:31:19;102858.85;;;21.90;30.79
77975;BME280;67164;51.202;0.278;2023-02-28T02:36:05;102868.67;;;22.08;30.84
77975;BME280;67164;51.202;0.278;2023-02-28T02:38:32;102866.80;;;22.16;30.77
77975;BME280;67164;51.202;0.278;2023-02-28T02:40:59;102864.71;;;22.13;30.71
77975;BME280;67164;51.202;0.278;2023-02-28T02:43:22;102866.04;;;21.91;30.69
77975;BME280;67164;51.202;0.278;2023-02-28T02:45:48;102865.85;;;22.08;30.75
77975;BME280;67164;51.202;0.278;2023-02-28T02:48:12;102862.15;;;21.77;30.81
77975;BME280;67164;51.202;0.278;2023-02-28T02:50:39;102865.59;;;21.76;30.81
77975;BME280;67164;51.202;0.278;2023-02-28T02:53:02;102867.59;;;22.02;30.79
77975;BME280;67164;51.202;0.278;2023-02-28T02:55:28;102867.73;;;22.02;30.78
77975;BME280;67164;51.202;0.278;2023-02-28T02:57:57;102869.50;;;21.96;30.82
77975;BME280;67164;51.202;0.278;2023-02-28T03:00:26;102868.15;;;21.65;30.82
77975;BME280;67164;51.202;0.278;2023-02-28T03:02:46;102868.56;;;22.00;30.74
77975;BME280;67164;51.202;0.278;2023-02-28T03:05:17;102874.21;;;21.90;30.83
77975;BME280;67164;51.202;0.278;2023-02-28T03:07:36;102873.87;;;21.90;30.80
77975;BME280;67164;51.202;0.278;2023-02-28T03:10:03;102869.29;;;21.87;30.81
77975;BME280;67164;51.202;0.278;2023-02-28T03:12:36;102866.51;;;22.30;30.80
77975;BME280;67164;51.202;0.278;2023-02-28T03:14:58;102862.45;;;21.60;30.79
77975;BME280;67164;51.202;0.278;2023-02-28T03:17:34;102867.32;;;21.83;30.78
77975;BME280;67164;51.202;0.278;2023-02-28T03:19:54;102868.73;;;21.80;30.75
77975;BME280;67164;51.202;0.278;2023-02-28T03:22:18;102868.84;;;21.79;30.80
77975;BME280;67164;51.202;0.278;2023-02-28T03:24:43;102868.24;;;21.53;30.78
77975;BME280;67164;51.202;0.278;2023-02-28T03:27:07;102873.79;;;21.77;30.74
77975;BME280;67164;51.202;0.278;2023-02-28T03:29:35;102868.63;;;21.70;30.79
77975;BME280;67164;51.202;0.278;2023-02-28T03:31:59;102866.30;;;21.65;30.84
77975;BME280;67164;51.202;0.278;2023-02-28T03:34:25;102869.63;;;21.58;30.83
77975;BME280;67164;51.202;0.278;2023-02-28T03:36:49;102874.27;;;21.58;30.92
77975;BME280;67164;51.202;0.278;2023-02-28T03:39:16;102880.89;;;21.54;30.86
77975;BME280;67164;51.202;0.278;2023-02-28T03:41:42;102885.38;;;21.55;30.86
77975;BME280;67164;51.202;0.278;2023-02-28T03:44:07;102889.52;;;21.48;30.92
77975;BME280;67164;51.202;0.278;2023-02-28T03:46:34;102893.25;;;21.45;30.95
77975;BME280;67164;51.202;0.278;2023-02-28T03:48:59;102895.79;;;21.42;30.94
77975;BME280;67164;51.202;0.278;2023-02-28T03:51:23;102894.73;;;21.39;30.95
77975;BME280;67164;51.202;0.278;2023-02-28T03:53:50;102893.93;;;21.45;30.90
77975;BME280;67164;51.202;0.278;2023-02-28T03:56:17;102893.10;;;21.83;30.96
77975;BME280;67164;51.202;0.278;2023-02-28T03:58:42;102891.70;;;21.35;30.91
77975;BME280;67164;51.202;0.278;2023-02-28T04:01:08;102885.55;;;21.36;30.91
77975;BME280;67164;51.202;0.278;2023-02-28T04:03:30;102887.20;;;21.30;30.99
77975;BME280;67164;51.202;0.278;2023-02-28T04:05:57;102889.76;;;21.26;30.94
77975;BME280;67164;51.202;0.278;2023-02-28T04:08:23;102895.73;;;21.20;30.99
77975;BME280;67164;51.202;0.278;2023-02-28T04:10:53;102893.87;;;21.48;31.01
77975;BME280;67164;51.202;0.278;2023-02-28T04:13:14;102892.77;;;21.46;31.00
77975;BME280;67164;51.202;0.278;2023-02-28T04:15:41;102891.03;;;21.69;31.00
77975;BME280;67164;51.202;0.278;2023-02-28T04:18:06;102892.95;;;21.16;31.01
77975;BME280;67164;51.202;0.278;2023-02-28T04:20:31;102889.43;;;21.44;31.00
77975;BME280;67164;51.202;0.278;2023-02-28T04:22:57;102888.82;;;21.09;31.06
77975;BME280;67164;51.202;0.278;2023-02-28T04:25:23;102889.43;;;21.58;31.11
77975;BME280;67164;51.202;0.278;2023-02-28T04:27:49;102893.14;;;21.28;31.12
77975;BME280;67164;51.202;0.278;2023-02-28T04:30:15;102892.89;;;21.28;31.08
77975;BME280;67164;51.202;0.278;2023-02-28T04:32:41;102891.60;;;21.33;31.08
77975;BME280;67164;51.202;0.278;2023-02-28T04:35:07;102898.06;;;21.26;31.08
77975;BME280;67164;51.202;0.278;2023-02-28T04:37:32;102901.82;;;21.20;31.13
77975;BME280;67164;51.202;0.278;2023-02-28T04:39:58;102904.17;;;21.42;31.13
77975;BME280;67164;51.202;0.278;2023-02-28T04:42:24;102900.76;;;21.06;31.26
77975;BME280;67164;51.202;0.278;2023-02-28T04:44:50;102898.24;;;21.23;31.32
77975;BME280;67164;51.202;0.278;2023-02-28T04:47:16;102895.42;;;20.86;31.38
77975;BME280;67164;51.202;0.278;2023-02-28T04:49:42;102894.16;;;21.04;31.46
77975;BME280;67164;51.202;0.278;2023-02-28T04:52:07;102893.34;;;21.07;31.43
77975;BME280;67164;51.202;0.278;2023-02-28T04:54:33;102894.31;;;20.96;31.54
77975;BME280;67164;51.202;0.278;2023-02-28T04:56:59;102890.86;;;21.00;31.51
77975;BME280;67164;51.202;0.278;2023-02-28T04:59:25;102890.82;;;20.92;31.51
77975;BME280;67164;51.202;0.278;2023-02-28T05:01:51;102884.67;;;20.94;31.53
77975;BME280;67164;51.202;0.278;2023-02-28T05:04:17;102883.68;;;21.14;31.57
77975;BME280;67164;51.202;0.278;2023-02-28T05:06:43;102881.74;;;20.83;31.60
77975;BME280;67164;51.202;0.278;2023-02-28T05:09:08;102882.03;;;21.10;31.59
77975;BME280;67164;51.202;0.278;2023-02-28T05:11:35;102879.78;;;20.85;31.62
77975;BME280;67164;51.202;0.278;2023-02-28T05:14:00;102880.05;;;20.86;31.62
77975;BME280;67164;51.202;0.278;2023-02-28T05:16:26;102881.64;;;20.81;31.63
77975;BME280;67164;51.202;0.278;2023-02-28T05:18:52;102886.20;;;20.84;31.62
77975;BME280;67164;51.202;0.278;2023-02-28T05:21:25;102885.61;;;20.76;31.62
77975;BME280;67164;51.202;0.278;2023-02-28T05:23:43;102888.05;;;20.96;31.70
77975;BME280;67164;51.202;0.278;2023-02-28T05:26:09;102890.80;;;20.68;31.73
77975;BME280;67164;51.202;0.278;2023-02-28T05:28:35;102887.30;;;20.71;31.71
77975;BME280;67164;51.202;0.278;2023-02-28T05:31:01;102890.14;;;21.10;31.77
77975;BME280;67164;51.202;0.278;2023-02-28T05:33:26;102886.61;;;20.86;31.76
77975;BME280;67164;51.202;0.278;2023-02-28T05:35:53;102888.65;;;21.12;31.73
77975;BME280;67164;51.202;0.278;2023-02-28T05:38:19;102890.89;;;20.58;31.75
77975;BME280;67164;51.202;0.278;2023-02-28T05:40:44;102897.84;;;20.60;31.74
77975;BME280;67164;51.202;0.278;2023-02-28T05:43:11;102900.22;;;20.81;31.72
77975;BME280;67164;51.202;0.278;2023-02-28T05:45:36;102902.17;;;20.59;31.74
77975;BME280;67164;51.202;0.278;2023-02-28T05:48:02;102904.35;;;20.66;31.72
77975;BME280;67164;51.202;0.278;2023-02-28T05:50:27;102903.45;;;20.65;31.63
77975;BME280;67164;51.202;0.278;2023-02-28T05:52:54;102908.82;;;20.60;31.66
77975;BME280;67164;51.202;0.278;2023-02-28T05:55:19;102913.89;;;20.53;31.72
77975;BME280;67164;51.202;0.278;2023-02-28T05:57:45;102913.66;;;20.57;31.71
77975;BME280;67164;51.202;0.278;2023-02-28T06:00:12;102915.26;;;20.70;31.76
77975;BME280;67164;51.202;0.278;2023-02-28T06:02:38;102915.48;;;20.84;31.85
77975;BME280;67164;51.202;0.278;2023-02-28T06:05:02;102918.27;;;20.61;31.82
77975;BME280;67164;51.202;0.278;2023-02-28T06:07:28;102919.17;;;20.86;31.82
77975;BME280;67164;51.202;0.278;2023-02-28T06:09:54;102919.29;;;20.36;31.88
77975;BME280;67164;51.202;0.278;2023-02-28T06:12:20;102917.15;;;20.36;31.87
77975;BME280;67164;51.202;0.278;2023-02-28T06:14:46;102920.10;;;20.62;31.86
77975;BME280;67164;51.202;0.278;2023-02-28T06:17:12;102925.48;;;20.60;31.85
77975;BME280;67164;51.202;0.278;2023-02-28T06:19:38;102921.69;;;20.55;31.89
77975;BME280;67164;51.202;0.278;2023-02-28T06:22:03;102919.98;;;20.59;31.91
77975;BME280;67164;51.202;0.278;2023-02-28T06:24:29;102925.66;;;20.47;31.91
77975;BME280;67164;51.202;0.278;2023-02-28T06:26:55;102922.89;;;20.26;31.90
77975;BME280;67164;51.202;0.278;2023-02-28T06:29:21;102923.22;;;20.50;31.90
77975;BME280;67164;51.202;0.278;2023-02-28T06:31:47;102925.59;;;20.59;31.82
77975;BME280;67164;51.202;0.278;2023-02-28T06:34:13;102926.62;;;20.55;31.83
77975;BME280;67164;51.202;0.278;2023-02-28T06:36:39;102928.21;;;20.78;31.80
77975;BME280;67164;51.202;0.278;2023-02-28T06:39:04;102926.31;;;20.28;31.85
77975;BME280;67164;51.202;0.278;2023-02-28T06:41:30;102930.36;;;20.50;31.85
77975;BME280;67164;51.202;0.278;2023-02-28T06:43:56;102930.71;;;20.67;31.95
77975;BME280;67164;51.202;0.278;2023-02-28T06:46:22;102934.44;;;20.49;31.88
77975;BME280;67164;51.202;0.278;2023-02-28T06:48:48;102928.21;;;20.35;31.80
77975;BME280;67164;51.202;0.278;2023-02-28T06:51:15;102930.44;;;20.31;31.85
77975;BME280;67164;51.202;0.278;2023-02-28T06:53:40;102930.01;;;20.36;31.79
77975;BME280;67164;51.202;0.278;2023-02-28T06:56:07;102927.35;;;20.55;31.81
77975;BME280;67164;51.202;0.278;2023-02-28T06:58:31;102924.93;;;20.29;31.80
77975;BME280;67164;51.202;0.278;2023-02-28T07:00:57;102926.24;;;20.30;31.78
77975;BME280;67164;51.202;0.278;2023-02-28T07:03:22;102928.91;;;20.28;31.81
77975;BME280;67164;51.202;0.278;2023-02-28T07:05:48;102929.25;;;20.44;31.90
77975;BME280;67164;51.202;0.278;2023-02-28T07:08:14;102925.57;;;20.23;31.87
77975;BME280;67164;51.202;0.278;2023-02-28T07:10:40;102926.93;;;20.49;31.81
77975;BME280;67164;51.202;0.278;2023-02-28T07:13:08;102928.01;;;20.20;31.82
77975;BME280;67164;51.202;0.278;2023-02-28T07:15:32;102934.38;;;20.21;31.80
77975;BME280;67164;51.202;0.278;2023-02-28T07:17:57;102935.56;;;20.13;31.83
77975;BME280;67164;51.202;0.278;2023-02-28T07:20:24;102931.50;;;20.12;31.84
77975;BME280;67164;51.202;0.278;2023-02-28T07:22:49;102935.01;;;20.64;31.87
77975;BME280;67164;51.202;0.278;2023-02-28T07:25:15;102932.82;;;20.17;31.84
77975;BME280;67164;51.202;0.278;2023-02-28T07:27:41;102937.71;;;20.20;31.88
77975;BME280;67164;51.202;0.278;2023-02-28T07:30:08;102932.02;;;20.23;31.80
77975;BME280;67164;51.202;0.278;2023-02-28T07:32:33;102930.10;;;20.21;32.04
77975;BME280;67164;51.202;0.278;2023-02-28T07:34:58;102937.35;;;19.88;32.28
77975;BME280;67164;51.202;0.278;2023-02-28T07:37:24;102935.55;;;20.44;32.37
77975;BME280;67164;51.202;0.278;2023-02-28T07:39:50;102933.20;;;20.22;32.42
77975;BME280;67164;51.202;0.278;2023-02-28T07:42:16;102931.62;;;20.56;32.36
77975;BME280;67164;51.202;0.278;2023-02-28T07:44:42;102933.35;;;20.19;32.13
77975;BME280;67164;51.202;0.278;2023-02-28T07:47:08;102930.41;;;20.62;32.23
77975;BME280;67164;51.202;0.278;2023-02-28T07:49:34;102930.64;;;20.50;32.11
77975;BME280;67164;51.202;0.278;2023-02-28T07:51:59;102928.68;;;20.50;32.30
77975;BME280;67164;51.202;0.278;2023-02-28T07:54:25;102928.99;;;20.66;32.34
77975;BME280;67164;51.202;0.278;2023-02-28T07:56:51;102934.07;;;20.70;32.61
77975;BME280;67164;51.202;0.278;2023-02-28T07:59:17;102932.10;;;20.85;32.60
77975;BME280;67164;51.202;0.278;2023-02-28T08:01:42;102930.53;;;21.25;32.63
77975;BME280;67164;51.202;0.278;2023-02-28T08:04:08;102932.12;;;21.03;32.65
77975;BME280;67164;51.202;0.278;2023-02-28T08:06:34;102925.48;;;21.22;32.59
77975;BME280;67164;51.202;0.278;2023-02-28T08:09:00;102930.55;;;21.15;32.37
77975;BME280;67164;51.202;0.278;2023-02-28T08:11:26;102933.32;;;21.40;32.28
77975;BME280;67164;51.202;0.278;2023-02-28T08:13:52;102933.68;;;21.65;32.08
77975;BME280;67164;51.202;0.278;2023-02-28T08:16:17;102930.07;;;21.53;32.10
77975;BME280;67164;51.202;0.278;2023-02-28T08:18:43;102934.25;;;21.67;32.06
77975;BME280;67164;51.202;0.278;2023-02-28T08:21:10;102937.63;;;21.89;31.97
77975;BME280;67164;51.202;0.278;2023-02-28T08:23:35;102936.75;;;22.48;31.58
77975;BME280;67164;51.202;0.278;2023-02-28T08:26:01;102937.30;;;22.25;31.24
77975;BME280;67164;51.202;0.278;2023-02-28T08:28:27;102937.68;;;22.70;31.18
77975;BME280;67164;51.202;0.278;2023-02-28T08:30:52;102933.19;;;23.01;30.96
77975;BME280;67164;51.202;0.278;2023-02-28T08:33:18;102937.24;;;23.05;30.90
77975;BME280;67164;51.202;0.278;2023-02-28T08:35:44;102941.59;;;22.86;30.77
77975;BME280;67164;51.202;0.278;2023-02-28T08:38:09;102937.41;;;22.86;30.86
77975;BME280;67164;51.202;0.278;2023-02-28T08:40:35;102936.01;;;22.94;30.76
77975;BME280;67164;51.202;0.278;2023-02-28T08:43:01;102937.75;;;22.95;30.85
77975;BME280;67164;51.202;0.278;2023-02-28T08:45:26;102936.00;;;23.20;30.93
77975;BME280;67164;51.202;0.278;2023-02-28T08:47:51;102938.60;;;23.45;30.95
77975;BME280;67164;51.202;0.278;2023-02-28T08:50:16;102930.86;;;23.73;30.84
77975;BME280;67164;51.202;0.278;2023-02-28T08:52:42;102934.00;;;23.63;30.63
77975;BME280;67164;51.202;0.278;2023-02-28T08:55:08;102935.28;;;23.59;30.76
77975;BME280;67164;51.202;0.278;2023-02-28T08:57:33;102935.93;;;23.73;30.71
77975;BME280;67164;51.202;0.278;2023-02-28T08:59:59;102927.66;;;23.77;30.79
77975;BME280;67164;51.202;0.278;2023-02-28T09:02:24;102928.79;;;23.98;30.61
77975;BME280;67164;51.202;0.278;2023-02-28T09:04:50;102929.02;;;23.65;30.65
77975;BME280;67164;51.202;0.278;2023-02-28T09:07:16;102929.75;;;23.85;30.70
77975;BME280;67164;51.202;0.278;2023-02-28T09:09:42;102935.14;;;23.86;30.61
77975;BME280;67164;51.202;0.278;2023-02-28T09:12:08;102935.69;;;24.03;30.53
77975;BME280;67164;51.202;0.278;2023-02-28T09:14:34;102932.17;;;23.86;30.74
77975;BME280;67164;51.202;0.278;2023-02-28T09:17:00;102935.10;;;23.86;30.64
77975;BME280;67164;51.202;0.278;2023-02-28T09:19:25;102938.37;;;23.88;30.75
77975;BME280;67164;51.202;0.278;2023-02-28T09:21:52;102937.80;;;24.19;30.38
77975;BME280;67164;51.202;0.278;2023-02-28T09:24:17;102938.71;;;23.85;30.55
77975;BME280;67164;51.202;0.278;2023-02-28T09:26:43;102940.22;;;24.36;30.42
77975;BME280;67164;51.202;0.278;2023-02-28T09:29:08;102935.57;;;23.90;30.33
77975;BME280;67164;51.202;0.278;2023-02-28T09:31:34;102929.38;;;24.24;30.38
77975;BME280;67164;51.202;0.278;2023-02-28T09:34:00;102928.75;;;24.51;30.31
77975;BME280;67164;51.202;0.278;2023-02-28T09:36:27;102933.37;;;24.04;30.27
77975;BME280;67164;51.202;0.278;2023-02-28T09:38:52;102931.83;;;24.28;30.37
77975;BME280;67164;51.202;0.278;2023-02-28T09:41:20;102938.88;;;24.23;30.26
77975;BME280;67164;51.202;0.278;2023-02-28T09:43:46;102935.79;;;24.22;30.29
77975;BME280;67164;51.202;0.278;2023-02-28T09:46:17;102939.09;;;24.54;30.33
77975;BME280;67164;51.202;0.278;2023-02-28T09:48:39;102944.17;;;24.72;30.00
77975;BME280;67164;51.202;0.278;2023-02-28T09:51:04;102942.48;;;24.48;30.05
77975;BME280;67164;51.202;0.278;2023-02-28T09:53:30;102949.19;;;24.78;29.97
77975;BME280;67164;51.202;0.278;2023-02-28T09:55:57;102947.33;;;25.04;29.70
77975;BME280;67164;51.202;0.278;2023-02-28T09:58:23;102948.92;;;24.93;29.77
77975;BME280;67164;51.202;0.278;2023-02-28T10:00:45;102940.68;;;24.91;29.67
77975;BME280;67164;51.202;0.278;2023-02-28T10:03:25;102939.76;;;25.05;29.64
77975;BME280;67164;51.202;0.278;2023-02-28T10:05:37;102934.35;;;25.19;29.58
77975;BME280;67164;51.202;0.278;2023-02-28T10:08:06;102929.79;;;24.68;29.56
77975;BME280;67164;51.202;0.278;2023-02-28T10:10:29;102928.77;;;25.35;29.44
77975;BME280;67164;51.202;0.278;2023-02-28T10:12:59;102928.60;;;25.33;29.58
77975;BME280;67164;51.202;0.278;2023-02-28T10:15:17;102932.35;;;25.38;29.23
77975;BME280;67164;51.202;0.278;2023-02-28T10:17:45;102927.45;;;25.71;29.21
77975;BME280;67164;51.202;0.278;2023-02-28T10:20:12;102922.84;;;25.15;29.45
77975;BME280;67164;51.202;0.278;2023-02-28T10:22:40;102925.84;;;25.85;29.17
77975;BME280;67164;51.202;0.278;2023-02-28T10:25:00;102912.19;;;25.58;28.96
77975;BME280;67164;51.202;0.278;2023-02-28T10:27:28;102906.97;;;26.14;28.54
77975;BME280;67164;51.202;0.278;2023-02-28T10:29:52;102903.23;;;25.43;28.63
77975;BME280;67164;51.202;0.278;2023-02-28T10:32:19;102902.58;;;25.80;28.53
77975;BME280;67164;51.202;0.278;2023-02-28T10:34:42;102896.63;;;25.36;28.55
77975;BME280;67164;51.202;0.278;2023-02-28T10:37:07;102895.91;;;25.32;28.63
77975;BME280;67164;51.202;0.278;2023-02-28T10:39:36;102895.41;;;25.58;28.66
77975;BME280;67164;51.202;0.278;2023-02-28T10:41:59;102898.80;;;25.78;28.52
77975;BME280;67164;51.202;0.278;2023-02-28T10:44:25;102902.53;;;25.41;28.69
77975;BME280;67164;51.202;0.278;2023-02-28T10:46:51;102904.32;;;25.59;28.60
77975;BME280;67164;51.202;0.278;2023-02-28T10:49:21;102903.80;;;25.60;28.58
77975;BME280;67164;51.202;0.278;2023-02-28T10:51:41;102899.09;;;25.62;28.49
77975;BME280;67164;51.202;0.278;2023-02-28T10:54:14;102895.95;;;25.74;28.48
77975;BME280;67164;51.202;0.278;2023-02-28T10:56:33;102894.43;;;26.07;28.36
77975;BME280;67164;51.202;0.278;2023-02-28T10:59:01;102885.24;;;25.81;28.38
77975;BME280;67164;51.202;0.278;2023-02-28T11:01:36;102885.61;;;25.93;28.18
77975;BME280;67164;51.202;0.278;2023-02-28T11:03:52;102873.52;;;26.15;28.04
77975;BME280;67164;51.202;0.278;2023-02-28T11:06:18;102879.03;;;25.99;27.82
77975;BME280;67164;51.202;0.278;2023-02-28T11:08:46;102877.20;;;25.46;28.11
77975;BME280;67164;51.202;0.278;2023-02-28T11:11:08;102862.64;;;25.11;28.51
77975;BME280;67164;51.202;0.278;2023-02-28T11:13:35;102857.27;;;24.66;29.22
77975;BME280;67164;51.202;0.278;2023-02-28T11:16:02;102856.83;;;24.24;29.54
77975;BME280;67164;51.202;0.278;2023-02-28T11:18:29;102863.41;;;24.27;29.95
77975;BME280;67164;51.202;0.278;2023-02-28T11:20:53;102870.86;;;24.07;30.24
77975;BME280;67164;51.202;0.278;2023-02-28T11:23:17;102877.76;;;24.20;30.40
77975;BME280;67164;51.202;0.278;2023-02-28T11:25:48;102869.94;;;23.83;30.30
77975;BME280;67164;51.202;0.278;2023-02-28T11:30:38;102873.50;;;24.00;30.68
77975;BME280;67164;51.202;0.278;2023-02-28T11:33:00;102876.46;;;23.74;30.41
77975;BME280;67164;51.202;0.278;2023-02-28T11:35:30;102881.13;;;24.45;30.03
77975;BME280;67164;51.202;0.278;2023-02-28T11:37:52;102876.75;;;25.11;29.07
77975;BME280;67164;51.202;0.278;2023-02-28T11:40:21;102870.20;;;25.24;28.94
77975;BME280;67164;51.202;0.278;2023-02-28T11:42:51;102859.97;;;24.88;28.76
77975;BME280;67164;51.202;0.278;2023-02-28T11:45:19;102860.53;;;25.17;28.85
77975;BME280;67164;51.202;0.278;2023-02-28T11:47:40;102855.32;;;25.13;28.91
77975;BME280;67164;51.202;0.278;2023-02-28T11:50:14;102848.45;;;24.80;28.97
77975;BME280;67164;51.202;0.278;2023-02-28T11:52:34;102843.19;;;24.72;29.07
77975;BME280;67164;51.202;0.278;2023-02-28T11:55:02;102841.84;;;24.55;29.12
77975;BME280;67164;51.202;0.278;2023-02-28T11:57:30;102843.73;;;24.78;29.37
77975;BME280;67164;51.202;0.278;2023-02-28T11:59:54;102838.31;;;24.48;29.20
77975;BME280;67164;51.202;0.278;2023-02-28T12:02:22;102831.89;;;24.49;29.44
77975;BME280;67164;51.202;0.278;2023-02-28T12:04:41;102837.87;;;24.59;29.39
77975;BME280;67164;51.202;0.278;2023-02-28T12:07:06;102840.97;;;24.34;29.28
77975;BME280;67164;51.202;0.278;2023-02-28T12:09:38;102837.17;;;24.48;29.44
77975;BME280;67164;51.202;0.278;2023-02-28T12:11:56;102846.95;;;24.28;29.66
77975;BME280;67164;51.202;0.278;2023-02-28T12:16:53;102850.02;;;24.16;29.77
77975;BME280;67164;51.202;0.278;2023-02-28T12:19:17;102835.29;;;24.39;29.46
77975;BME280;67164;51.202;0.278;2023-02-28T12:21:45;102826.85;;;24.34;29.44
77975;BME280;67164;51.202;0.278;2023-02-28T12:24:15;102827.07;;;24.27;29.47
77975;BME280;67164;51.202;0.278;2023-02-28T12:26:35;102821.39;;;24.06;29.41
77975;BME280;67164;51.202;0.278;2023-02-28T12:28:59;102827.16;;;23.81;29.69
77975;BME280;67164;51.202;0.278;2023-02-28T12:31:23;102818.25;;;24.10;29.63
77975;BME280;67164;51.202;0.278;2023-02-28T12:33:48;102816.23;;;23.95;29.95
77975;BME280;67164;51.202;0.278;2023-02-28T12:36:12;102811.00;;;24.34;29.77
77975;BME280;67164;51.202;0.278;2023-02-28T12:38:39;102805.05;;;24.27;29.89
77975;BME280;67164;51.202;0.278;2023-02-28T12:41:03;102799.97;;;23.78;30.17
77975;BME280;67164;51.202;0.278;2023-02-28T12:43:33;102799.67;;;23.74;30.14
77975;BME280;67164;51.202;0.278;2023-02-28T12:45:56;102802.46;;;23.51;30.37
77975;BME280;67164;51.202;0.278;2023-02-28T12:48:26;102797.02;;;23.14;31.04
77975;BME280;67164;51.202;0.278;2023-02-28T12:50:45;102790.14;;;23.50;30.72
77975;BME280;67164;51.202;0.278;2023-02-28T12:53:15;102786.51;;;23.71;30.59